• Join FlightAware (Why Join?)
  • Login
  • US Flag 
11:26AM EDT


 

Airport Tracker/Info


-or-


 

Live Flight TrackerFlight Track Log ✈ SWA2975 ✈ 02-Jul-2013 ✈ KSLC - KMDW

Flight Track Log - Related Links

Times and Time Zones

All times are in EDT time to prevent confusion due to time zone crossing. See the SWA2975 flight status page for this flight to view local times or setup timezone preferences in your user account.

Time Position Orientation Groundspeed Altitude Reporting Facility
EDT Latitude Longitude Course Direction KTS MPH feet Rate Location/Type
06:31PM 40.8030 -111.9760 354° North 180 207 4,400  Level FlightAware
06:32PM 40.8250 -111.9790 354° North 191 220 5,400 1,560 Climbing FlightAware
06:32PM 40.8480 -111.9830 353° North 221 254 5,700 1,080 Climbing FlightAware
06:32PM 40.8740 -111.9860 355° North 243 280 6,300 1,680 Climbing FlightAware
06:33PM 40.9070 -111.9910 353° North 260 299 7,200 2,160 Climbing FlightAware
06:33PM 40.9260 -111.9940 353° North 258 297 7,900 2,160 Climbing FlightAware
06:34PM 40.9610 -111.9990 354° North 276 318 8,800 2,040 Climbing FlightAware
06:34PM 41.0060 -111.9710 25° Northeast 283 326 10,300 1,980 Climbing FlightAware
06:35PM 41.0110 -111.9520 71° East 290 334 10,600 2,280 Climbing FlightAware
06:35PM 41.0140 -111.8750 87° East 296 341 12,400 2,520 Climbing FlightAware
06:36PM 41.0190 -111.7990 85° East 300 345 14,200 2,100 Climbing FlightAware
06:37PM 41.0230 -111.7200 86° East 323 372 15,400 1,860 Climbing FlightAware
06:37PM 41.0270 -111.6450 86° East 333 383 16,700 1,920 Climbing FlightAware
06:38PM 41.0340 -111.5620 84° East 345 397 17,900 1,920 Climbing FlightAware
06:39PM 41.0510 -111.4840 74° East 356 410 19,200 1,080 Climbing FlightAware
06:39PM 41.0760 -111.3790 72° East 371 427 19,600 240 Climbing FlightAware
06:40PM 41.0940 -111.3070 72° East 371 427 19,600  Level FlightAware
06:41PM 41.1160 -111.2190 72° East 371 427 19,600  Level FlightAware
06:42PM 41.1320 -111.1510 73° East 371 427 19,600  Level FlightAware
06:42PM 41.1490 -111.0820 72° East 371 427 19,600  Level FlightAware
06:43PM 41.1710 -110.9940 72° East 371 427 19,600 4,140 Level FlightAware
06:44PM 41.2300 -110.6944 72° East 430 495 27,400 4,200 Climbing Salt Lake Center
06:45PM 41.2639 -110.5419 73° East 447 514 28,500 1,320 Climbing Salt Lake Center
06:46PM 41.3039 -110.3625 73° East 453 521 30,200 1,500 Climbing Salt Lake Center
06:47PM 41.3367 -110.2106 74° East 449 517 31,700 1,320 Climbing Salt Lake Center
06:48PM 41.3692 -110.0611 74° East 442 509 33,000 1,260 Climbing Salt Lake Center
06:49PM 41.4067 -109.8844 74° East 442 509 34,400 1,200 Climbing Salt Lake Center
06:50PM 41.4392 -109.7356 74° East 439 505 35,500 1,080 Climbing Salt Lake Center
06:51PM 41.4761 -109.5622 74° East 435 501 36,700 720 Climbing Salt Lake Center
06:52PM 41.5072 -109.4158 74° East 430 495 37,000 120 Climbing Salt Lake Center
06:53PM 41.5450 -109.2444 74° East 427 491 37,000  Level Salt Lake Center
06:54PM 41.5772 -109.0925 74° East 432 497 37,000  Level Salt Lake Center
06:55PM 41.5981 -108.9406 80° East 431 496 37,000  Level Salt Lake Center
06:56PM 41.6103 -108.7639 85° East 427 491 37,000  Level Salt Lake Center
06:57PM 41.6233 -108.5836 84° East 430 495 37,000  Level Denver Center
06:58PM 41.6350 -108.4586 83° East 431 496 37,000  Level Salt Lake Center
06:59PM 41.6472 -108.2792 85° East 435 501 37,000  Level Salt Lake Center
07:00PM 41.6575 -108.1258 85° East 434 499 37,000  Level Salt Lake Center
07:01PM 41.6706 -107.9444 84° East 437 503 37,000  Level Salt Lake Center
07:03PM 41.6811 -107.7886 85° East 438 504 37,000  Level Salt Lake Center
07:04PM 41.6911 -107.6325 85° East 441 507 37,000  Level Salt Lake Center
07:09PM 41.7470 -106.7600 85° East 434 499 37,000  Level FlightAware
07:09PM 41.7510 -106.6800 86° East 436 502 37,000  Level FlightAware
07:10PM 41.7580 -106.5780 85° East 436 502 37,000  Level FlightAware
07:11PM 41.7650 -106.4380 86° East 436 502 37,000  Level FlightAware
07:11PM 41.7710 -106.3390 85° East 437 503 37,000  Level FlightAware
07:12PM 41.7780 -106.2110 86° East 437 503 37,000  Level FlightAware
07:13PM 41.7840 -106.0990 86° East 437 503 37,000  Level FlightAware
07:14PM 41.7890 -105.9970 86° East 438 504 37,000  Level FlightAware
07:14PM 41.7940 -105.8990 86° East 438 504 37,000  Level FlightAware
07:15PM 41.8010 -105.7750 86° East 439 505 37,000  Level FlightAware
07:16PM 41.8080 -105.6320 86° East 440 506 37,000  Level FlightAware
07:16PM 41.8130 -105.5290 86° East 440 506 37,000  Level FlightAware
07:17PM 41.8200 -105.3720 87° East 437 503 37,000  Level FlightAware
07:18PM 41.8250 -105.2690 86° East 433 498 37,000  Level FlightAware
07:19PM 41.8310 -105.1520 86° East 433 498 37,000  Level FlightAware
07:19PM 41.8350 -105.0560 87° East 433 498 37,000  Level FlightAware
07:20PM 41.8410 -104.9270 86° East 430 495 37,000  Level FlightAware
07:21PM 41.8440 -104.8390 87° East 429 494 37,000  Level FlightAware
07:21PM 41.8490 -104.7220 87° East 430 495 37,000  Level FlightAware
07:22PM 41.8540 -104.6150 86° East 431 496 37,000  Level FlightAware
07:23PM 41.8580 -104.5080 87° East 432 497 37,000  Level FlightAware
07:24PM 41.8630 -104.3920 87° East 433 498 37,000  Level FlightAware
07:24PM 41.8660 -104.2940 88° East 434 499 37,000  Level FlightAware
07:25PM 41.8710 -104.1630 87° East 434 499 37,000  Level FlightAware
07:26PM 41.8750 -104.0450 87° East 433 498 37,000  Level FlightAware
07:26PM 41.8790 -103.9490 87° East 432 497 37,000  Level FlightAware
07:27PM 41.8820 -103.8430 88° East 432 497 37,000  Level FlightAware
07:28PM 41.8860 -103.7270 87° East 432 497 37,000  Level FlightAware
07:28PM 41.8890 -103.6460 87° East 433 498 37,000  Level FlightAware
07:29PM 41.8930 -103.5210 87° East 436 502 37,000  Level FlightAware
07:30PM 41.8880 -103.4060 93° East 448 516 37,000  Level FlightAware
07:30PM 41.8800 -103.2900 95° East 444 511 37,000  Level FlightAware
07:31PM 41.8810 -103.1820 89° East 439 505 37,000  Level FlightAware
07:32PM 41.8830 -103.0680 89° East 439 505 37,000  Level FlightAware
07:33PM 41.8860 -102.9150 88° East 438 504 37,000  Level FlightAware
07:33PM 41.8870 -102.8180 89° East 437 503 37,000  Level FlightAware
07:34PM 41.8910 -102.6700 88° East 437 503 37,000  Level FlightAware
07:35PM 41.8930 -102.5870 88° East 437 503 37,000  Level FlightAware
07:36PM 41.8970 -102.4440 88° East 437 503 37,000  Level FlightAware
07:37PM 41.8990 -102.3610 88° East 437 503 37,000  Level FlightAware
07:37PM 41.9010 -102.2780 88° East 437 503 37,000  Level FlightAware
07:38PM 41.9040 -102.1720 88° East 437 503 37,000  Level FlightAware
07:39PM 41.8980 -101.9700 92° East 431 496 37,000  Level FlightAware
07:39PM 41.8990 -101.8880 89° East 431 496 37,000  Level FlightAware
07:40PM 41.9000 -101.7770 89° East 431 496 37,000  Level FlightAware
07:41PM 41.9010 -101.6950 89° East 431 496 37,000  Level FlightAware
07:41PM 41.9030 -101.5830 89° East 431 496 37,000  Level FlightAware
07:42PM 41.9040 -101.4990 89° East 431 496 37,000  Level FlightAware
07:43PM 41.9050 -101.4170 89° East 431 496 37,000  Level FlightAware
07:43PM 41.9060 -101.3060 89° East 431 496 37,000  Level FlightAware
07:44PM 41.9070 -101.2240 89° East 431 496 37,000  Level FlightAware
07:45PM 41.9080 -101.1420 89° East 431 496 37,000  Level FlightAware
07:45PM 41.9100 -101.0550 88° East 431 496 37,000  Level FlightAware
07:46PM 41.9110 -100.9500 89° East 431 496 37,000  Level FlightAware
07:47PM 41.9120 -100.8660 89° East 431 496 37,000  Level FlightAware
07:47PM 41.9130 -100.7550 89° East 431 496 37,000  Level FlightAware
07:48PM 41.9150 -100.6700 88° East 431 496 37,000  Level FlightAware
07:49PM 41.9008 -100.2650 88° East 432 497 37,000  Level Minneapolis Center
07:50PM 41.8972 -100.0864 91° East 434 499 37,000  Level Denver Center
07:52PM 41.8958 -99.9067 91° East 432 497 37,000  Level Denver Center
07:53PM 41.8958 -99.7536 90° East 430 495 37,000  Level Denver Center
07:54PM 41.8925 -99.5881 91° East 434 499 37,000  Level Denver Center
07:55PM 41.8917 -99.4256 90° East 435 501 37,000  Level Denver Center
07:56PM 41.8892 -99.2614 91° East 437 503 37,000  Level Denver Center
07:57PM 41.8869 -99.0972 91° East 439 505 37,000  Level Minneapolis Center
08:02PM 41.8660 -98.1260 91° East 440 506 37,000  Level FlightAware
08:03PM 41.8640 -98.0150 91° East 439 505 37,000  Level FlightAware
08:04PM 41.8610 -97.9310 93° East 438 504 37,000  Level FlightAware
08:04PM 41.8570 -97.7940 92° East 439 505 37,000  Level FlightAware
08:05PM 41.8550 -97.6980 92° East 439 505 37,000  Level FlightAware
08:06PM 41.8500 -97.5260 92° East 444 511 37,000  Level FlightAware
08:07PM 41.8470 -97.4280 92° East 444 511 37,000  Level FlightAware
08:08PM 41.8410 -97.2600 93° East 443 510 37,000  Level FlightAware
08:08PM 41.8380 -97.1710 93° East 441 507 37,000  Level FlightAware
08:09PM 41.8350 -97.0660 92° East 440 506 37,000  Level FlightAware
08:10PM 41.8310 -96.9410 92° East 440 506 37,000  Level FlightAware
08:10PM 41.8270 -96.8470 93° East 448 516 37,000  Level FlightAware
08:11PM 41.8230 -96.7290 93° East 447 514 37,000  Level FlightAware
08:12PM 41.8180 -96.6090 93° East 444 511 37,000  Level FlightAware
08:12PM 41.8140 -96.4980 93° East 444 511 37,000  Level FlightAware
08:13PM 41.8100 -96.3860 93° East 444 511 37,000  Level FlightAware
08:14PM 41.8050 -96.2620 93° East 449 517 37,000  Level FlightAware
08:14PM 41.8000 -96.1520 93° East 451 519 37,000  Level FlightAware
08:15PM 41.7950 -96.0280 93° East 450 518 37,000  Level FlightAware
08:16PM 41.7900 -95.9150 93° East 449 517 37,000  Level FlightAware
08:17PM 41.7850 -95.8030 93° East 448 516 37,000  Level FlightAware
08:17PM 41.7790 -95.6820 94° East 448 516 37,000  Level FlightAware
08:18PM 41.7710 -95.4970 93° East 450 518 37,000  Level FlightAware
08:19PM 41.7680 -95.4120 93° East 450 518 37,000  Level FlightAware
08:20PM 41.7600 -95.2730 94° East 448 516 37,000  Level FlightAware
08:20PM 41.7570 -95.1860 93° East 448 516 37,000  Level FlightAware
08:21PM 41.7530 -95.0730 93° East 448 516 37,000  Level FlightAware
08:22PM 41.7490 -94.9880 94° East 448 516 37,000  Level FlightAware
08:22PM 41.7310 -94.8430 99° East 424 488 37,000  Level FlightAware
08:23PM 41.6740 -94.7450 128° Southeast 429 494 37,000  Level FlightAware
08:24PM 41.6200 -94.6370 124° Southeast 430 495 37,000  Level FlightAware
08:25PM 41.5650 -94.5260 123° Southeast 429 494 37,000  Level FlightAware
08:26PM 41.5320 -94.4570 123° Southeast 429 494 37,000  Level FlightAware
08:26PM 41.5240 -94.3860 99° East 424 488 37,000  Level FlightAware
08:27PM 41.5120 -94.2690 98° East 422 486 37,000  Level FlightAware
08:27PM 41.5060 -94.1450 94° East 420 483 37,000  Level FlightAware
08:28PM 41.4990 -94.0090 94° East 436 502 37,000  Level FlightAware
08:29PM 41.4930 -93.9110 95° East 448 516 37,000  Level FlightAware
08:30PM 41.4830 -93.7400 94° East 451 519 37,000  Level FlightAware
08:30PM 41.4780 -93.6490 94° East 451 519 37,000  Level FlightAware
08:31PM 41.4710 -93.5370 95° East 450 518 37,000  Level FlightAware
08:32PM 41.4630 -93.4100 95° East 447 514 37,000  Level FlightAware
08:33PM 41.4560 -93.2990 95° East 441 507 37,000  Level FlightAware
08:33PM 41.4490 -93.1800 94° East 439 505 37,000  Level FlightAware
08:34PM 41.4420 -93.0770 95° East 442 509 37,000  Level FlightAware
08:35PM 41.4340 -92.9570 95° East 450 518 37,000  Level FlightAware
08:35PM 41.4270 -92.8430 95° East 449 517 37,000  Level FlightAware
08:36PM 41.4190 -92.7260 95° East 450 518 37,000  Level FlightAware
08:37PM 41.4110 -92.6160 96° East 448 516 37,000 -360 Level FlightAware
08:37PM 41.4220 -92.5180 81° East 449 517 36,600 -900 Descending FlightAware
08:38PM 41.4590 -92.4050 66° East 444 511 35,800 -1,080 Descending FlightAware
08:39PM 41.4880 -92.2940 71° East 444 511 35,100 -1,020 Descending FlightAware
08:40PM 41.5010 -92.1790 81° East 431 496 34,400 -1,020 Descending FlightAware
08:40PM 41.4970 -92.0760 93° East 424 488 33,700 -1,080 Descending FlightAware
08:41PM 41.4840 -91.9740 100° East 421 484 33,000 -1,080 Descending FlightAware
08:42PM 41.4680 -91.8480 100° East 413 475 32,200 -1,080 Descending FlightAware
08:42PM 41.4570 -91.7650 100° East 412 474 31,600 -1,080 Descending FlightAware
08:43PM 41.4450 -91.6650 99° East 411 473 30,900 -1,020 Descending FlightAware
08:44PM 41.4300 -91.5520 100° East 408 470 30,200 -1,020 Descending FlightAware
08:44PM 41.4200 -91.4710 99° East 406 467 29,600 -840 Descending FlightAware
08:45PM 41.4020 -91.3300 100° East 399 459 29,000 -420 Descending FlightAware
08:46PM 41.3890 -91.2340 100° East 399 459 29,000  Level FlightAware
08:47PM 41.3750 -91.1310 100° East 401 461 29,000 -360 Level FlightAware
08:47PM 41.3620 -91.0280 100° East 394 453 28,500 -1,320 Descending FlightAware
08:48PM 41.3450 -90.9050 100° East 385 443 26,900 -1,740 Descending FlightAware
08:49PM 41.3310 -90.8010 100° East 390 449 25,700 -1,980 Descending FlightAware
08:50PM 41.3180 -90.7020 100° East 388 447 24,200 -1,620 Descending FlightAware
08:50PM 41.3020 -90.5920 101° East 394 453 23,400 -780 Descending FlightAware
08:51PM 41.2860 -90.4730 100° East 392 451 23,000 -300 Descending FlightAware
08:52PM 41.2730 -90.3780 100° East 390 449 23,000  Level FlightAware
08:53PM 41.2570 -90.2620 100° East 389 448 23,000  Level FlightAware
08:53PM 41.2470 -90.1910 101° East 391 450 23,000 -240 Level FlightAware
08:54PM 41.2320 -90.0850 101° East 415 478 22,700 -1,380 Descending FlightAware
08:55PM 41.2150 -89.9720 101° East 407 468 21,000 -2,340 Descending FlightAware
08:55PM 41.2030 -89.8840 100° East 400 460 19,600 -2,220 Descending FlightAware
08:56PM 41.1890 -89.7850 101° East 390 449 18,100 -2,340 Descending FlightAware
08:57PM 41.1720 -89.6720 101° East 386 444 16,200 -1,800 Descending FlightAware
08:57PM 41.1800 -89.5800 83° East 379 436 15,500 -1,080 Descending FlightAware
08:58PM 41.2060 -89.4940 68° East 376 433 14,800 -1,020 Descending FlightAware
08:59PM 41.2290 -89.4160 69° East 371 427 14,200 -960 Descending FlightAware
08:59PM 41.2530 -89.3350 68° East 367 422 13,600 -1,020 Descending FlightAware
09:00PM 41.2770 -89.2550 68° East 356 410 12,900 -1,080 Descending FlightAware
09:01PM 41.3060 -89.1570 68° East 338 389 12,100 -1,080 Descending FlightAware
09:01PM 41.3270 -89.0830 69° East 328 377 11,400 -1,020 Descending FlightAware
09:02PM 41.3510 -88.9990 69° East 323 372 10,700 -1,080 Descending FlightAware
09:03PM 41.3710 -88.9330 68° East 307 353 10,000 -1,140 Descending FlightAware
09:03PM 41.3880 -88.8740 69° East 294 338 9,400 -1,140 Descending FlightAware
09:04PM 41.4020 -88.8250 69° East 289 333 8,900 -1,080 Descending FlightAware
09:04PM 41.4140 -88.7820 70° East 286 329 8,400 -1,080 Descending FlightAware
09:05PM 41.4280 -88.7330 69° East 284 327 7,900 -1,020 Descending FlightAware
09:05PM 41.4410 -88.6900 68° East 281 323 7,500 -960 Descending FlightAware
09:05PM 41.4460 -88.6700 72° East 280 322 7,300 -900 Descending FlightAware
09:06PM 41.4600 -88.6220 69° East 279 321 6,900 -480 Descending FlightAware
09:06PM 41.4720 -88.5800 69° East 276 318 6,900  Level FlightAware
09:07PM 41.4790 -88.5560 69° East 275 316 6,900  Level FlightAware
09:07PM 41.4890 -88.5200 70° East 273 314 6,900  Level FlightAware
09:07PM 41.5010 -88.4790 69° East 274 315 6,900 -480 Level FlightAware
09:08PM 41.5100 -88.4270 77° East 275 316 6,500 -900 Descending FlightAware
09:08PM 41.5170 -88.3860 77° East 275 316 6,100 -660 Descending FlightAware
09:09PM 41.5250 -88.3340 78° East 270 311 5,900 -240 Descending FlightAware
09:09PM 41.5330 -88.2840 78° East 267 307 5,900 -480 Level FlightAware
09:10PM 41.5400 -88.2410 78° East 266 306 5,500 -900 Descending FlightAware
09:10PM 41.5440 -88.2090 81° East 266 306 5,200 -1,020 Descending FlightAware
09:11PM 41.5560 -88.1410 77° East 263 303 4,400 -960 Descending FlightAware
09:11PM 41.5700 -88.0970 67° East 248 285 4,100 -540 Descending FlightAware
09:12PM 41.5830 -88.0580 66° East 230 265 3,900 -300 Descending FlightAware
09:12PM 41.5900 -88.0370 66° East 220 253 3,900  Level FlightAware
09:13PM 41.5990 -88.0080 67° East 193 222 3,900 -360 Level FlightAware
09:13PM 41.6120 -87.9760 61° Northeast 173 199 3,600 -660 Descending FlightAware
09:14PM 41.6240 -87.9560 51° Northeast 166 191 3,300 -720 Descending FlightAware
09:14PM 41.6380 -87.9360 47° Northeast 158 182 3,000 -600 Descending FlightAware
09:14PM 41.6530 -87.9190 40° Northeast 159 183 2,800 -480 Descending FlightAware
09:15PM 41.6690 -87.8980 44° Northeast 158 182 2,600 -480 Descending FlightAware
09:15PM 41.6820 -87.8820 43° Northeast 159 183 2,400 -240 Descending FlightAware
09:16PM 41.6960 -87.8650 42° Northeast 160 184 2,400 -120 Level FlightAware
09:16PM 41.7130 -87.8430 44° Northeast 164 189 2,300 -540 Descending FlightAware
09:17PM 41.7260 -87.8260 44° Northeast 152 175 1,900 -840 Descending FlightAware
09:17PM 41.7350 -87.8150 42° Northeast 143 165 1,700 -720 Descending FlightAware
09:17PM 41.7480 -87.7990 43° Northeast 133 153 1,400 -720 Descending FlightAware
09:18PM 41.7590 -87.7840 45° Northeast 135 155 1,100 -360 Descending FlightAware
09:18PM 41.7700 -87.7710 41° Northeast 135 155 1,100 -120 Level FlightAware
09:19PM 41.7806 -87.7581 41° Northeast 148 170 1,000 -240 Descending Chicago Center
09:21PM 41.7833 -87.7500 51° Northeast  Level FlightAware Approximate